sensor_id;sensor_type;location;lat;lon;timestamp;temperature;humidity
13264;DHT22;6700;51.988;7.646;2022-07-11T04:26:23;16.10;99.90
13264;DHT22;6700;51.988;7.646;2022-07-11T04:30:54;16.00;99.90
13264;DHT22;6700;51.988;7.646;2022-07-11T04:34:32;15.90;99.90
13264;DHT22;6700;51.988;7.646;2022-07-11T04:39:01;16.00;99.90
13264;DHT22;6700;51.988;7.646;2022-07-11T04:43:30;15.80;99.90
13264;DHT22;6700;51.988;7.646;2022-07-11T04:50:58;15.80;99.90
13264;DHT22;6700;51.988;7.646;2022-07-11T04:58:11;15.90;99.90
13264;DHT22;6700;51.988;7.646;2022-07-11T05:01:42;15.90;99.90
13264;DHT22;6700;51.988;7.646;2022-07-11T05:05:21;15.80;99.90
13264;DHT22;6700;51.988;7.646;2022-07-11T05:13:00;16.00;99.90
13264;DHT22;6700;51.988;7.646;2022-07-11T05:16:51;16.00;99.90
13264;DHT22;6700;51.988;7.646;2022-07-11T05:20:48;16.10;99.90
13264;DHT22;6700;51.988;7.646;2022-07-11T05:24:54;15.90;99.90
13264;DHT22;6700;51.988;7.646;2022-07-11T05:32:55;15.90;99.90
13264;DHT22;6700;51.988;7.646;2022-07-11T05:36:40;15.90;99.90
13264;DHT22;6700;51.988;7.646;2022-07-11T05:41:31;16.00;99.90
13264;DHT22;6700;51.988;7.646;2022-07-11T05:45:35;16.10;99.90
13264;DHT22;6700;51.988;7.646;2022-07-11T05:49:19;16.10;99.90
13264;DHT22;6700;51.988;7.646;2022-07-11T05:53:25;16.10;99.90
13264;DHT22;6700;51.988;7.646;2022-07-11T05:57:11;16.10;99.90
13264;DHT22;6700;51.988;7.646;2022-07-11T06:01:21;16.20;99.90
13264;DHT22;6700;51.988;7.646;2022-07-11T06:05:03;16.50;99.90
13264;DHT22;6700;51.988;7.646;2022-07-11T06:09:15;16.20;99.90
13264;DHT22;6700;51.988;7.646;2022-07-11T06:12:55;16.20;99.90
13264;DHT22;6700;51.988;7.646;2022-07-11T06:20:33;16.30;99.90
13264;DHT22;6700;51.988;7.646;2022-07-11T06:23:06;16.40;99.90
13264;DHT22;6700;51.988;7.646;2022-07-11T06:26:03;16.60;99.90
13264;DHT22;6700;51.988;7.646;2022-07-11T06:29:41;16.60;99.90
13264;DHT22;6700;51.988;7.646;2022-07-11T06:33:53;16.70;99.90
13264;DHT22;6700;51.988;7.646;2022-07-11T06:37:48;16.60;99.90
13264;DHT22;6700;51.988;7.646;2022-07-11T06:40:35;16.70;99.90
13264;DHT22;6700;51.988;7.646;2022-07-11T06:43:02;16.70;99.90
13264;DHT22;6700;51.988;7.646;2022-07-11T06:45:29;16.60;99.90
13264;DHT22;6700;51.988;7.646;2022-07-11T06:47:56;16.80;99.90
13264;DHT22;6700;51.988;7.646;2022-07-11T06:50:23;16.50;99.90
13264;DHT22;6700;51.988;7.646;2022-07-11T06:52:50;16.40;99.90
13264;DHT22;6700;51.988;7.646;2022-07-11T06:55:17;16.20;99.90
13264;DHT22;6700;51.988;7.646;2022-07-11T06:57:44;16.30;99.90
13264;DHT22;6700;51.988;7.646;2022-07-11T07:00:51;16.30;99.90
13264;DHT22;6700;51.988;7.646;2022-07-11T07:03:52;16.10;99.90
13264;DHT22;6700;51.988;7.646;2022-07-11T07:08:23;16.10;99.90
13264;DHT22;6700;51.988;7.646;2022-07-11T07:12:10;16.00;99.90
13264;DHT22;6700;51.988;7.646;2022-07-11T07:15:13;16.00;99.90
13264;DHT22;6700;51.988;7.646;2022-07-11T07:17:41;16.00;99.90
13264;DHT22;6700;51.988;7.646;2022-07-11T07:20:18;15.90;99.90
13264;DHT22;6700;51.988;7.646;2022-07-11T07:22:44;15.80;99.90
13264;DHT22;6700;51.988;7.646;2022-07-11T07:25:11;15.80;99.90
13264;DHT22;6700;51.988;7.646;2022-07-11T07:27:39;15.70;99.90
13264;DHT22;6700;51.988;7.646;2022-07-11T07:30:07;15.70;99.90
13264;DHT22;6700;51.988;7.646;2022-07-11T07:32:34;15.80;99.90
13264;DHT22;6700;51.988;7.646;2022-07-11T07:35:01;15.90;99.90
13264;DHT22;6700;51.988;7.646;2022-07-11T07:37:28;16.00;99.90
13264;DHT22;6700;51.988;7.646;2022-07-11T07:39:55;16.00;99.90
13264;DHT22;6700;51.988;7.646;2022-07-11T07:42:22;16.20;99.90
13264;DHT22;6700;51.988;7.646;2022-07-11T07:44:51;16.30;99.90
13264;DHT22;6700;51.988;7.646;2022-07-11T07:47:29;16.40;99.90
13264;DHT22;6700;51.988;7.646;2022-07-11T07:50:00;16.40;99.90
13264;DHT22;6700;51.988;7.646;2022-07-11T07:52:53;16.60;99.90
13264;DHT22;6700;51.988;7.646;2022-07-11T07:55:23;16.80;99.90
13264;DHT22;6700;51.988;7.646;2022-07-11T07:57:50;16.80;99.90
13264;DHT22;6700;51.988;7.646;2022-07-11T08:00:17;16.80;99.90
13264;DHT22;6700;51.988;7.646;2022-07-11T08:03:07;17.10;99.90
13264;DHT22;6700;51.988;7.646;2022-07-11T08:05:40;17.20;99.90
13264;DHT22;6700;51.988;7.646;2022-07-11T08:08:07;17.60;99.90
13264;DHT22;6700;51.988;7.646;2022-07-11T08:10:40;17.70;99.90
13264;DHT22;6700;51.988;7.646;2022-07-11T08:14:27;18.10;99.90
13264;DHT22;6700;51.988;7.646;2022-07-11T08:17:54;18.00;99.90
13264;DHT22;6700;51.988;7.646;2022-07-11T08:20:55;18.00;99.90
13264;DHT22;6700;51.988;7.646;2022-07-11T08:24:31;17.80;99.90
13264;DHT22;6700;51.988;7.646;2022-07-11T08:27:05;17.80;99.90
13264;DHT22;6700;51.988;7.646;2022-07-11T08:29:56;17.70;99.90
13264;DHT22;6700;51.988;7.646;2022-07-11T08:33:00;17.60;99.90
13264;DHT22;6700;51.988;7.646;2022-07-11T08:35:29;17.60;99.90
13264;DHT22;6700;51.988;7.646;2022-07-11T08:37:57;18.00;99.90
13264;DHT22;6700;51.988;7.646;2022-07-11T08:40:24;18.00;99.90
13264;DHT22;6700;51.988;7.646;2022-07-11T08:42:51;18.10;99.90
13264;DHT22;6700;51.988;7.646;2022-07-11T08:45:20;18.00;99.90
13264;DHT22;6700;51.988;7.646;2022-07-11T08:47:50;17.80;99.90
13264;DHT22;6700;51.988;7.646;2022-07-11T08:50:19;17.80;99.90
13264;DHT22;6700;51.988;7.646;2022-07-11T08:52:53;18.00;99.90
13264;DHT22;6700;51.988;7.646;2022-07-11T08:55:21;18.00;99.90
13264;DHT22;6700;51.988;7.646;2022-07-11T08:57:48;18.20;99.90
13264;DHT22;6700;51.988;7.646;2022-07-11T09:00:19;18.10;99.90
13264;DHT22;6700;51.988;7.646;2022-07-11T09:02:47;18.20;99.90
13264;DHT22;6700;51.988;7.646;2022-07-11T09:05:15;18.30;99.90
13264;DHT22;6700;51.988;7.646;2022-07-11T09:07:48;18.40;99.90
13264;DHT22;6700;51.988;7.646;2022-07-11T09:10:23;18.50;99.90
13264;DHT22;6700;51.988;7.646;2022-07-11T09:13:07;18.60;99.90
13264;DHT22;6700;51.988;7.646;2022-07-11T09:15:42;18.60;99.90
13264;DHT22;6700;51.988;7.646;2022-07-11T09:18:29;18.90;99.90
13264;DHT22;6700;51.988;7.646;2022-07-11T09:21:01;18.80;99.90
13264;DHT22;6700;51.988;7.646;2022-07-11T09:23:59;18.60;99.90
13264;DHT22;6700;51.988;7.646;2022-07-11T09:26:50;18.40;99.90
13264;DHT22;6700;51.988;7.646;2022-07-11T09:29:22;18.40;99.90
13264;DHT22;6700;51.988;7.646;2022-07-11T09:31:54;18.20;99.90
13264;DHT22;6700;51.988;7.646;2022-07-11T09:34:23;18.00;99.90
13264;DHT22;6700;51.988;7.646;2022-07-11T09:36:59;18.00;99.90
13264;DHT22;6700;51.988;7.646;2022-07-11T09:39:27;18.10;99.90
13264;DHT22;6700;51.988;7.646;2022-07-11T09:41:55;18.20;99.90
13264;DHT22;6700;51.988;7.646;2022-07-11T09:44:27;18.40;99.90
13264;DHT22;6700;51.988;7.646;2022-07-11T09:46:56;18.40;99.90
13264;DHT22;6700;51.988;7.646;2022-07-11T09:49:36;18.50;99.90
13264;DHT22;6700;51.988;7.646;2022-07-11T09:52:16;18.80;99.90
13264;DHT22;6700;51.988;7.646;2022-07-11T09:55:02;19.00;99.90
13264;DHT22;6700;51.988;7.646;2022-07-11T09:57:52;19.00;99.90
13264;DHT22;6700;51.988;7.646;2022-07-11T10:00:21;19.20;99.90
13264;DHT22;6700;51.988;7.646;2022-07-11T10:02:48;19.00;99.90
13264;DHT22;6700;51.988;7.646;2022-07-11T10:05:22;18.90;99.90
13264;DHT22;6700;51.988;7.646;2022-07-11T10:07:50;18.70;99.90
13264;DHT22;6700;51.988;7.646;2022-07-11T10:10:18;18.50;99.90
13264;DHT22;6700;51.988;7.646;2022-07-11T10:12:53;18.60;99.90
13264;DHT22;6700;51.988;7.646;2022-07-11T10:15:30;18.40;99.90
13264;DHT22;6700;51.988;7.646;2022-07-11T10:18:15;18.50;99.90
13264;DHT22;6700;51.988;7.646;2022-07-11T10:21:09;18.60;99.90
13264;DHT22;6700;51.988;7.646;2022-07-11T10:23:53;18.50;99.90
13264;DHT22;6700;51.988;7.646;2022-07-11T10:26:51;18.50;99.90
13264;DHT22;6700;51.988;7.646;2022-07-11T10:34:42;18.30;99.90
13264;DHT22;6700;51.988;7.646;2022-07-11T10:37:11;18.60;99.90
13264;DHT22;6700;51.988;7.646;2022-07-11T10:39:39;18.70;99.90
13264;DHT22;6700;51.988;7.646;2022-07-11T10:42:37;18.90;99.90
13264;DHT22;6700;51.988;7.646;2022-07-11T10:45:10;18.90;99.90
13264;DHT22;6700;51.988;7.646;2022-07-11T10:47:45;19.00;99.90
13264;DHT22;6700;51.988;7.646;2022-07-11T10:50:32;19.20;99.90
13264;DHT22;6700;51.988;7.646;2022-07-11T10:53:10;19.60;99.90
13264;DHT22;6700;51.988;7.646;2022-07-11T10:56:02;19.80;99.90
13264;DHT22;6700;51.988;7.646;2022-07-11T10:58:33;19.80;99.90
13264;DHT22;6700;51.988;7.646;2022-07-11T11:01:13;20.00;99.90
13264;DHT22;6700;51.988;7.646;2022-07-11T11:03:44;20.20;99.90
13264;DHT22;6700;51.988;7.646;2022-07-11T11:06:18;20.30;99.90
13264;DHT22;6700;51.988;7.646;2022-07-11T11:09:38;20.10;99.90
13264;DHT22;6700;51.988;7.646;2022-07-11T11:12:05;20.10;99.90
13264;DHT22;6700;51.988;7.646;2022-07-11T11:14:34;20.10;99.90
13264;DHT22;6700;51.988;7.646;2022-07-11T11:17:37;20.00;99.90
13264;DHT22;6700;51.988;7.646;2022-07-11T11:20:30;19.80;99.90
13264;DHT22;6700;51.988;7.646;2022-07-11T11:23:19;19.90;99.90
13264;DHT22;6700;51.988;7.646;2022-07-11T11:25:50;19.80;99.90
13264;DHT22;6700;51.988;7.646;2022-07-11T11:28:22;19.90;99.90
13264;DHT22;6700;51.988;7.646;2022-07-11T11:30:53;19.80;99.90
13264;DHT22;6700;51.988;7.646;2022-07-11T11:33:27;19.90;99.90
13264;DHT22;6700;51.988;7.646;2022-07-11T11:36:18;20.10;99.90
13264;DHT22;6700;51.988;7.646;2022-07-11T11:38:46;20.00;99.90
13264;DHT22;6700;51.988;7.646;2022-07-11T11:41:38;19.90;99.90
13264;DHT22;6700;51.988;7.646;2022-07-11T11:44:07;20.00;99.90
13264;DHT22;6700;51.988;7.646;2022-07-11T11:46:35;20.00;99.90
13264;DHT22;6700;51.988;7.646;2022-07-11T11:49:05;20.00;99.90
13264;DHT22;6700;51.988;7.646;2022-07-11T11:51:34;20.00;99.90
